sensor_id;sensor_type;location;lat;lon;timestamp;P1;durP1;ratioP1;P2;durP2;ratioP2
64419;SDS011;50745;48.170;14.516;2022-12-07T00:05:18;6.60;;;4.35;;
64419;SDS011;50745;48.170;14.516;2022-12-07T00:15:19;6.15;;;4.47;;
64419;SDS011;50745;48.170;14.516;2022-12-07T00:25:21;5.22;;;4.45;;
64419;SDS011;50745;48.170;14.516;2022-12-07T00:35:22;6.47;;;5.00;;
64419;SDS011;50745;48.170;14.516;2022-12-07T00:45:23;5.68;;;4.57;;
64419;SDS011;50745;48.170;14.516;2022-12-07T00:55:25;5.78;;;4.53;;
64419;SDS011;50745;48.170;14.516;2022-12-07T01:05:26;5.30;;;4.20;;
64419;SDS011;50745;48.170;14.516;2022-12-07T01:15:28;5.70;;;4.53;;
64419;SDS011;50745;48.170;14.516;2022-12-07T01:25:29;5.85;;;4.60;;
64419;SDS011;50745;48.170;14.516;2022-12-07T01:35:33;6.00;;;4.68;;
64419;SDS011;50745;48.170;14.516;2022-12-07T01:55:37;7.05;;;5.05;;
64419;SDS011;50745;48.170;14.516;2022-12-07T02:05:40;5.97;;;4.50;;
64419;SDS011;50745;48.170;14.516;2022-12-07T02:46:08;7.22;;;4.88;;
64419;SDS011;50745;48.170;14.516;2022-12-07T02:56:13;6.25;;;4.90;;
64419;SDS011;50745;48.170;14.516;2022-12-07T03:06:22;7.57;;;5.38;;
64419;SDS011;50745;48.170;14.516;2022-12-07T03:16:27;7.43;;;4.97;;
64419;SDS011;50745;48.170;14.516;2022-12-07T03:26:36;7.10;;;5.43;;
64419;SDS011;50745;48.170;14.516;2022-12-07T03:37:25;6.70;;;5.15;;
64419;SDS011;50745;48.170;14.516;2022-12-07T03:47:04;6.33;;;5.30;;
64419;SDS011;50745;48.170;14.516;2022-12-07T03:57:07;6.40;;;5.00;;
64419;SDS011;50745;48.170;14.516;2022-12-07T04:07:10;5.88;;;4.40;;
64419;SDS011;50745;48.170;14.516;2022-12-07T04:17:11;6.38;;;4.30;;
64419;SDS011;50745;48.170;14.516;2022-12-07T04:27:13;5.13;;;4.00;;
64419;SDS011;50745;48.170;14.516;2022-12-07T04:37:14;5.50;;;4.18;;
64419;SDS011;50745;48.170;14.516;2022-12-07T04:47:15;5.20;;;3.90;;
64419;SDS011;50745;48.170;14.516;2022-12-07T04:57:16;5.38;;;3.70;;
64419;SDS011;50745;48.170;14.516;2022-12-07T05:07:19;4.45;;;3.42;;
64419;SDS011;50745;48.170;14.516;2022-12-07T05:17:20;4.97;;;3.75;;
64419;SDS011;50745;48.170;14.516;2022-12-07T05:27:22;4.82;;;3.80;;
64419;SDS011;50745;48.170;14.516;2022-12-07T05:37:23;4.68;;;3.65;;
64419;SDS011;50745;48.170;14.516;2022-12-07T05:47:24;5.05;;;3.80;;
64419;SDS011;50745;48.170;14.516;2022-12-07T05:57:25;5.45;;;4.25;;
64419;SDS011;50745;48.170;14.516;2022-12-07T06:07:27;5.22;;;4.10;;
64419;SDS011;50745;48.170;14.516;2022-12-07T06:17:28;4.97;;;4.20;;
64419;SDS011;50745;48.170;14.516;2022-12-07T06:27:29;5.78;;;4.57;;
64419;SDS011;50745;48.170;14.516;2022-12-07T06:37:31;5.82;;;4.90;;
64419;SDS011;50745;48.170;14.516;2022-12-07T06:47:32;6.18;;;4.93;;
64419;SDS011;50745;48.170;14.516;2022-12-07T06:57:33;7.22;;;5.20;;
64419;SDS011;50745;48.170;14.516;2022-12-07T07:07:34;7.60;;;5.55;;
64419;SDS011;50745;48.170;14.516;2022-12-07T07:17:35;6.78;;;5.50;;
64419;SDS011;50745;48.170;14.516;2022-12-07T07:27:37;5.70;;;4.97;;
64419;SDS011;50745;48.170;14.516;2022-12-07T07:37:38;6.43;;;5.18;;
64419;SDS011;50745;48.170;14.516;2022-12-07T07:47:39;7.18;;;5.63;;
64419;SDS011;50745;48.170;14.516;2022-12-07T07:57:40;6.57;;;5.30;;
64419;SDS011;50745;48.170;14.516;2022-12-07T08:07:42;7.63;;;6.05;;
64419;SDS011;50745;48.170;14.516;2022-12-07T08:17:44;6.80;;;5.32;;
64419;SDS011;50745;48.170;14.516;2022-12-07T08:27:45;7.38;;;6.28;;
64419;SDS011;50745;48.170;14.516;2022-12-07T08:37:46;6.57;;;5.50;;
64419;SDS011;50745;48.170;14.516;2022-12-07T08:47:59;6.68;;;5.75;;
64419;SDS011;50745;48.170;14.516;2022-12-07T08:58:02;7.78;;;5.60;;
64419;SDS011;50745;48.170;14.516;2022-12-07T09:08:04;7.35;;;5.90;;
64419;SDS011;50745;48.170;14.516;2022-12-07T09:18:05;6.75;;;5.82;;
64419;SDS011;50745;48.170;14.516;2022-12-07T09:28:06;7.03;;;5.80;;
64419;SDS011;50745;48.170;14.516;2022-12-07T09:38:08;6.40;;;5.40;;
64419;SDS011;50745;48.170;14.516;2022-12-07T09:48:16;6.55;;;5.78;;
64419;SDS011;50745;48.170;14.516;2022-12-07T09:58:23;6.72;;;5.22;;
64419;SDS011;50745;48.170;14.516;2022-12-07T10:08:25;6.60;;;5.10;;
64419;SDS011;50745;48.170;14.516;2022-12-07T10:28:33;6.63;;;5.40;;
64419;SDS011;50745;48.170;14.516;2022-12-07T10:38:36;5.90;;;4.78;;
64419;SDS011;50745;48.170;14.516;2022-12-07T10:48:48;6.35;;;4.72;;
64419;SDS011;50745;48.170;14.516;2022-12-07T11:09:04;5.95;;;4.93;;
64419;SDS011;50745;48.170;14.516;2022-12-07T11:39:35;6.30;;;5.10;;
64419;SDS011;50745;48.170;14.516;2022-12-07T11:59:44;6.17;;;4.40;;
64419;SDS011;50745;48.170;14.516;2022-12-07T12:09:51;5.73;;;4.57;;
64419;SDS011;50745;48.170;14.516;2022-12-07T12:30:02;6.20;;;5.00;;
64419;SDS011;50745;48.170;14.516;2022-12-07T12:50:18;5.80;;;4.72;;
64419;SDS011;50745;48.170;14.516;2022-12-07T13:00:22;5.45;;;4.20;;
64419;SDS011;50745;48.170;14.516;2022-12-07T13:31:04;6.45;;;4.20;;
64419;SDS011;50745;48.170;14.516;2022-12-07T13:51:27;5.70;;;3.67;;
64419;SDS011;50745;48.170;14.516;2022-12-07T14:01:32;4.38;;;3.35;;
64419;SDS011;50745;48.170;14.516;2022-12-07T14:11:33;5.53;;;3.65;;
64419;SDS011;50745;48.170;14.516;2022-12-07T14:21:34;6.00;;;4.05;;
64419;SDS011;50745;48.170;14.516;2022-12-07T14:31:36;5.82;;;4.10;;
64419;SDS011;50745;48.170;14.516;2022-12-07T14:41:39;5.07;;;3.85;;
64419;SDS011;50745;48.170;14.516;2022-12-07T14:51:52;5.60;;;3.80;;
64419;SDS011;50745;48.170;14.516;2022-12-07T15:01:54;5.57;;;4.43;;
64419;SDS011;50745;48.170;14.516;2022-12-07T15:11:55;5.85;;;4.10;;
64419;SDS011;50745;48.170;14.516;2022-12-07T15:21:56;5.20;;;4.18;;
64419;SDS011;50745;48.170;14.516;2022-12-07T15:31:58;4.90;;;4.07;;
64419;SDS011;50745;48.170;14.516;2022-12-07T15:41:59;5.30;;;4.10;;
64419;SDS011;50745;48.170;14.516;2022-12-07T15:52:00;5.25;;;3.97;;
64419;SDS011;50745;48.170;14.516;2022-12-07T16:02:01;5.25;;;4.03;;
64419;SDS011;50745;48.170;14.516;2022-12-07T16:12:03;5.00;;;3.80;;
64419;SDS011;50745;48.170;14.516;2022-12-07T16:22:05;5.55;;;3.90;;
64419;SDS011;50745;48.170;14.516;2022-12-07T16:32:06;4.72;;;3.80;;
64419;SDS011;50745;48.170;14.516;2022-12-07T16:42:07;4.63;;;3.70;;
64419;SDS011;50745;48.170;14.516;2022-12-07T16:52:09;4.88;;;4.00;;
64419;SDS011;50745;48.170;14.516;2022-12-07T17:02:11;5.00;;;3.53;;
64419;SDS011;50745;48.170;14.516;2022-12-07T17:12:12;4.68;;;3.70;;
64419;SDS011;50745;48.170;14.516;2022-12-07T17:22:14;5.40;;;3.63;;
64419;SDS011;50745;48.170;14.516;2022-12-07T17:32:15;4.45;;;3.22;;
64419;SDS011;50745;48.170;14.516;2022-12-07T17:42:16;4.47;;;3.45;;
64419;SDS011;50745;48.170;14.516;2022-12-07T17:52:37;4.47;;;3.08;;
64419;SDS011;50745;48.170;14.516;2022-12-07T18:02:57;4.45;;;3.42;;
64419;SDS011;50745;48.170;14.516;2022-12-07T18:12:58;4.97;;;3.40;;
64419;SDS011;50745;48.170;14.516;2022-12-07T18:23:18;3.88;;;2.92;;
64419;SDS011;50745;48.170;14.516;2022-12-07T18:33:20;3.70;;;2.83;;
64419;SDS011;50745;48.170;14.516;2022-12-07T18:43:22;3.90;;;2.90;;
64419;SDS011;50745;48.170;14.516;2022-12-07T18:53:25;4.47;;;2.90;;
64419;SDS011;50745;48.170;14.516;2022-12-07T19:03:26;4.00;;;2.95;;
64419;SDS011;50745;48.170;14.516;2022-12-07T19:13:28;3.80;;;2.70;;
64419;SDS011;50745;48.170;14.516;2022-12-07T19:23:29;4.00;;;2.80;;
64419;SDS011;50745;48.170;14.516;2022-12-07T19:33:30;3.97;;;2.72;;
64419;SDS011;50745;48.170;14.516;2022-12-07T19:43:32;4.18;;;2.80;;
64419;SDS011;50745;48.170;14.516;2022-12-07T19:53:33;3.85;;;2.70;;
64419;SDS011;50745;48.170;14.516;2022-12-07T20:03:35;3.65;;;2.80;;
64419;SDS011;50745;48.170;14.516;2022-12-07T20:13:36;3.90;;;2.70;;
64419;SDS011;50745;48.170;14.516;2022-12-07T20:23:37;3.20;;;2.50;;
64419;SDS011;50745;48.170;14.516;2022-12-07T20:33:39;3.75;;;2.80;;
64419;SDS011;50745;48.170;14.516;2022-12-07T20:43:40;3.80;;;2.75;;
64419;SDS011;50745;48.170;14.516;2022-12-07T20:53:43;5.30;;;3.50;;
64419;SDS011;50745;48.170;14.516;2022-12-07T21:03:44;4.25;;;3.00;;
64419;SDS011;50745;48.170;14.516;2022-12-07T21:13:45;3.75;;;2.65;;
64419;SDS011;50745;48.170;14.516;2022-12-07T21:23:47;3.88;;;2.90;;
64419;SDS011;50745;48.170;14.516;2022-12-07T21:33:49;4.38;;;3.22;;
64419;SDS011;50745;48.170;14.516;2022-12-07T21:43:50;3.83;;;2.70;;
64419;SDS011;50745;48.170;14.516;2022-12-07T21:53:52;4.00;;;2.92;;
64419;SDS011;50745;48.170;14.516;2022-12-07T22:03:53;4.10;;;2.80;;
64419;SDS011;50745;48.170;14.516;2022-12-07T22:13:55;4.10;;;2.78;;
64419;SDS011;50745;48.170;14.516;2022-12-07T22:24:15;3.80;;;2.70;;
64419;SDS011;50745;48.170;14.516;2022-12-07T22:34:16;3.38;;;2.67;;
64419;SDS011;50745;48.170;14.516;2022-12-07T22:44:18;3.47;;;2.67;;
64419;SDS011;50745;48.170;14.516;2022-12-07T22:54:19;4.15;;;2.60;;
64419;SDS011;50745;48.170;14.516;2022-12-07T23:04:20;3.78;;;2.78;;
64419;SDS011;50745;48.170;14.516;2022-12-07T23:14:32;4.13;;;2.90;;
64419;SDS011;50745;48.170;14.516;2022-12-07T23:24:33;3.75;;;2.60;;
64419;SDS011;50745;48.170;14.516;2022-12-07T23:34:34;3.30;;;2.50;;
64419;SDS011;50745;48.170;14.516;2022-12-07T23:44:36;3.50;;;2.70;;
64419;SDS011;50745;48.170;14.516;2022-12-07T23:54:37;3.38;;;2.40;;
